createdAt,value
2022-08-26T00:01:44.126Z,55.31
2022-08-26T00:04:12.358Z,55.16
2022-08-26T00:06:42.711Z,55.11
2022-08-26T00:09:16.016Z,56.15
2022-08-26T00:11:45.470Z,55.19
2022-08-26T00:14:13.899Z,55.47
2022-08-26T00:16:47.638Z,55.44
2022-08-26T00:19:17.063Z,55.13
2022-08-26T00:21:46.531Z,54.73
2022-08-26T00:24:16.789Z,54.54
2022-08-26T00:26:52.571Z,54.21
2022-08-26T00:29:21.322Z,55.01
2022-08-26T00:32:08.377Z,57.38
2022-08-26T00:34:44.955Z,58.24
2022-08-26T00:37:22.787Z,57.95
2022-08-26T00:39:53.582Z,58.21
2022-08-26T00:42:24.224Z,56.85
2022-08-26T00:44:56.423Z,56.19
2022-08-26T00:47:51.714Z,55.48
2022-08-26T00:50:38.486Z,57.55
2022-08-26T00:53:57.234Z,58.17
2022-08-26T00:56:30.002Z,57.41
2022-08-26T00:59:01.502Z,56.61
2022-08-26T01:01:32.534Z,57.54
2022-08-26T01:04:01.286Z,58.17
2022-08-26T01:06:34.951Z,57.85
2022-08-26T01:09:08.089Z,57.53
2022-08-26T01:11:36.787Z,56.69
2022-08-26T01:14:29.290Z,56.80
2022-08-26T01:17:03.423Z,56.50
2022-08-26T01:19:38.067Z,56.01
2022-08-26T01:22:12.912Z,55.26
2022-08-26T01:24:40.238Z,56.97
2022-08-26T01:27:10.159Z,57.19
2022-08-26T01:29:39.363Z,57.38
2022-08-26T01:32:07.890Z,56.39
2022-08-26T01:34:36.342Z,55.87
2022-08-26T01:37:07.788Z,56.28
2022-08-26T01:39:39.918Z,55.57
2022-08-26T01:42:10.286Z,55.19
2022-08-26T01:44:42.227Z,55.95
2022-08-26T01:47:10.574Z,55.86
2022-08-26T01:49:37.927Z,55.46
2022-08-26T01:52:05.503Z,55.19
2022-08-26T01:54:33.732Z,54.81
2022-08-26T01:57:04.642Z,55.20
2022-08-26T01:59:32.087Z,55.40
2022-08-26T02:01:59.489Z,55.04
2022-08-26T02:04:29.976Z,54.03
2022-08-26T02:07:05.823Z,54.47
2022-08-26T02:09:33.367Z,54.87
2022-08-26T02:12:09.085Z,55.33
2022-08-26T02:27:56.823Z,57.68
2022-08-26T02:30:26.029Z,57.76
2022-08-26T02:32:55.703Z,57.67
2022-08-26T02:35:50.556Z,57.40
2022-08-26T02:38:18.091Z,57.36
2022-08-26T02:40:48.256Z,57.23
2022-08-26T02:43:31.299Z,57.11
2022-08-26T02:46:27.988Z,57.13
2022-08-26T02:49:01.339Z,56.75
2022-08-26T02:51:31.119Z,57.16
2022-08-26T02:54:00.596Z,56.81
2022-08-26T02:56:59.596Z,56.05
2022-08-26T02:59:27.392Z,57.45
2022-08-26T03:01:57.774Z,57.33
2022-08-26T03:04:25.852Z,57.51
2022-08-26T03:06:55.444Z,57.17
2022-08-26T03:09:25.512Z,57.23
2022-08-26T03:11:55.604Z,56.97
2022-08-26T03:14:26.246Z,57.87
2022-08-26T03:16:59.646Z,57.88
2022-08-26T03:19:27.924Z,58.38
2022-08-26T03:21:58.067Z,58.44
2022-08-26T03:24:27.085Z,58.46
2022-08-26T03:26:54.494Z,59.40
2022-08-26T03:29:44.050Z,59.95
2022-08-26T03:32:17.119Z,60.73
2022-08-26T03:34:45.076Z,61.42
2022-08-26T03:37:44.422Z,60.05
2022-08-26T03:40:12.294Z,61.33
2022-08-26T03:42:40.160Z,60.70
2022-08-26T03:45:12.778Z,60.55
2022-08-26T03:47:40.421Z,60.16
2022-08-26T03:50:08.720Z,61.25
2022-08-26T03:52:39.712Z,61.69
2022-08-26T03:55:11.172Z,61.76
2022-08-26T03:57:38.711Z,60.99
2022-08-26T04:00:07.746Z,60.55
2022-08-26T04:02:36.001Z,60.31
2022-08-26T04:05:03.726Z,60.02
2022-08-26T04:07:32.046Z,61.08
2022-08-26T04:10:00.572Z,61.08
2022-08-26T04:12:29.416Z,61.17
2022-08-26T04:14:57.086Z,61.20
2022-08-26T04:17:26.362Z,60.88
2022-08-26T04:19:54.183Z,60.53
2022-08-26T04:22:24.020Z,60.29
2022-08-26T04:24:52.712Z,59.91
2022-08-26T04:27:24.214Z,60.69
2022-08-26T04:29:55.218Z,60.72
2022-08-26T04:32:22.907Z,60.65
2022-08-26T04:34:50.418Z,60.85
2022-08-26T04:37:18.597Z,60.61
2022-08-26T04:39:45.958Z,61.35
2022-08-26T04:42:13.949Z,60.50
2022-08-26T04:44:41.685Z,60.65
2022-08-26T04:47:09.134Z,60.31
2022-08-26T04:49:37.336Z,59.96
2022-08-26T04:52:07.348Z,59.96
2022-08-26T04:54:35.259Z,60.59
2022-08-26T04:57:02.693Z,60.39
2022-08-26T04:59:30.188Z,60.34
2022-08-26T05:01:59.676Z,60.21
2022-08-26T05:04:27.157Z,60.15
2022-08-26T05:06:59.246Z,60.35
2022-08-26T05:09:30.491Z,60.33
2022-08-26T05:11:58.646Z,60.43
2022-08-26T05:14:25.979Z,60.86
2022-08-26T05:16:57.004Z,60.44
2022-08-26T05:19:25.793Z,60.53
2022-08-26T05:21:55.570Z,61.00
2022-08-26T05:24:23.557Z,61.37
2022-08-26T05:26:53.538Z,61.08
2022-08-26T05:29:20.950Z,61.02
2022-08-26T05:31:53.381Z,60.83
2022-08-26T05:34:23.536Z,60.59
2022-08-26T05:36:53.403Z,60.34
2022-08-26T05:39:23.700Z,60.72
2022-08-26T05:41:51.338Z,60.63
2022-08-26T05:44:21.313Z,60.75
2022-08-26T05:46:51.304Z,60.56
2022-08-26T05:49:18.967Z,60.51
2022-08-26T05:51:47.657Z,60.96
2022-08-26T05:54:21.214Z,59.91
2022-08-26T05:57:02.917Z,59.77
2022-08-26T05:59:31.051Z,60.16
2022-08-26T06:01:59.810Z,59.50
2022-08-26T06:04:29.302Z,60.00
2022-08-26T06:06:57.252Z,59.75
2022-08-26T06:09:24.866Z,60.36
2022-08-26T06:11:52.222Z,59.82
2022-08-26T06:14:20.909Z,60.10
2022-08-26T06:16:48.313Z,59.39
2022-08-26T06:19:17.549Z,60.76
2022-08-26T06:21:45.757Z,61.02
2022-08-26T06:24:32.647Z,62.25
2022-08-26T06:27:04.882Z,63.57
2022-08-26T06:29:33.675Z,64.17
2022-08-26T06:32:01.150Z,63.44
2022-08-26T06:34:30.250Z,63.31
2022-08-26T06:36:59.690Z,61.29
2022-08-26T06:39:28.404Z,61.67
2022-08-26T06:41:59.129Z,61.71
2022-08-26T06:44:26.907Z,61.23
2022-08-26T06:46:54.270Z,59.83
2022-08-26T06:49:26.771Z,59.71
2022-08-26T06:51:55.390Z,58.00
2022-08-26T06:54:22.670Z,59.32
2022-08-26T06:56:50.329Z,56.92
2022-08-26T06:59:18.270Z,59.01
2022-08-26T07:01:45.873Z,57.81
2022-08-26T07:04:15.699Z,57.19
2022-08-26T07:06:49.422Z,58.25
2022-08-26T07:09:17.421Z,59.37
2022-08-26T07:11:45.089Z,57.41
2022-08-26T07:14:12.661Z,58.30
2022-08-26T07:16:41.277Z,57.03
2022-08-26T07:19:10.755Z,56.34
2022-08-26T07:21:41.153Z,56.22
2022-08-26T07:24:09.243Z,56.42
2022-08-26T07:26:38.648Z,52.70
2022-08-26T07:29:06.926Z,53.36
2022-08-26T07:31:42.199Z,53.61
2022-08-26T07:34:10.868Z,52.40
2022-08-26T07:36:38.221Z,51.43
2022-08-26T07:39:05.967Z,52.09
2022-08-26T07:41:36.672Z,53.19
2022-08-26T07:44:04.409Z,51.16
2022-08-26T07:46:32.009Z,51.33
2022-08-26T07:48:59.769Z,50.54
2022-08-26T07:51:29.319Z,50.47
2022-08-26T07:53:57.168Z,49.79
2022-08-26T07:56:25.142Z,51.54
2022-08-26T07:58:53.119Z,50.68
2022-08-26T08:01:23.716Z,50.27
2022-08-26T08:03:51.809Z,49.33
2022-08-26T08:06:23.107Z,47.76
2022-08-26T08:08:56.070Z,48.58
2022-08-26T08:11:23.572Z,48.05
2022-08-26T08:13:55.983Z,47.96
2022-08-26T08:16:24.944Z,50.06
2022-08-26T08:18:53.583Z,47.80
2022-08-26T08:21:50.911Z,47.97
2022-08-26T08:24:18.557Z,48.78
2022-08-26T08:26:53.482Z,49.57
2022-08-26T08:29:23.365Z,48.81
2022-08-26T08:31:56.686Z,49.65
2022-08-26T08:34:27.256Z,48.80
2022-08-26T08:36:54.529Z,49.16
2022-08-26T08:39:22.325Z,48.92
2022-08-26T08:42:06.518Z,47.93
2022-08-26T08:44:33.790Z,47.49
2022-08-26T08:47:06.442Z,46.98
2022-08-26T08:49:33.855Z,46.44
2022-08-26T08:52:01.353Z,47.41
2022-08-26T08:54:30.028Z,48.77
2022-08-26T08:57:17.833Z,46.94
2022-08-26T08:59:48.768Z,48.79
2022-08-26T09:02:25.308Z,45.09
2022-08-26T09:04:56.157Z,47.12
2022-08-26T09:07:36.328Z,49.14
2022-08-26T09:10:04.274Z,47.77
2022-08-26T09:12:32.355Z,48.91
2022-08-26T09:15:07.838Z,46.69
2022-08-26T09:17:53.620Z,46.94
2022-08-26T09:20:30.469Z,47.66
2022-08-26T09:22:57.919Z,49.10
2022-08-26T09:25:25.638Z,47.29
2022-08-26T09:27:53.427Z,47.57
2022-08-26T09:30:24.513Z,48.64
2022-08-26T09:33:02.279Z,47.62
2022-08-26T09:35:33.916Z,47.25
2022-08-26T09:38:01.300Z,46.97
2022-08-26T09:40:35.382Z,46.54
2022-08-26T09:43:09.170Z,46.96
2022-08-26T09:45:36.819Z,48.73
2022-08-26T09:48:04.900Z,44.66
2022-08-26T09:50:53.335Z,48.04
2022-08-26T09:53:28.793Z,46.51
2022-08-26T09:56:13.226Z,45.46
2022-08-26T09:58:41.954Z,45.24
2022-08-26T10:01:14.705Z,45.18
2022-08-26T10:03:42.667Z,46.90
2022-08-26T10:06:30.401Z,45.24
2022-08-26T10:09:00.380Z,46.84
2022-08-26T10:11:31.875Z,44.22
2022-08-26T10:14:20.252Z,44.32
2022-08-26T10:16:52.954Z,46.17
2022-08-26T10:19:23.725Z,45.57
2022-08-26T10:22:01.491Z,45.40
2022-08-26T10:24:35.023Z,43.90
2022-08-26T10:27:04.984Z,46.67
2022-08-26T10:29:35.563Z,47.15
2022-08-26T10:32:10.358Z,47.84
2022-08-26T10:34:42.308Z,46.98
2022-08-26T10:37:15.934Z,45.33
2022-08-26T10:39:43.797Z,45.18
2022-08-26T10:42:16.244Z,47.39
2022-08-26T10:44:43.711Z,44.72
2022-08-26T10:47:40.586Z,45.24
2022-08-26T10:50:13.322Z,47.63
2022-08-26T10:53:02.084Z,45.02
2022-08-26T10:55:34.990Z,45.92
2022-08-26T10:58:09.123Z,44.38
2022-08-26T11:01:02.374Z,40.87
2022-08-26T11:03:51.812Z,44.11
2022-08-26T11:06:19.846Z,41.20
2022-08-26T11:08:54.292Z,42.46
2022-08-26T11:11:51.080Z,42.36
2022-08-26T11:17:05.868Z,41.54
2022-08-26T11:19:59.440Z,40.40
2022-08-26T11:22:29.338Z,38.63
2022-08-26T11:24:57.283Z,41.62
2022-08-26T11:40:50.154Z,41.89
2022-08-26T11:56:19.284Z,36.54
2022-08-26T11:58:56.145Z,34.94
2022-08-26T12:01:32.179Z,35.17
2022-08-26T12:04:05.699Z,35.75
2022-08-26T12:06:49.440Z,36.33
2022-08-26T12:09:24.956Z,34.11
2022-08-26T12:11:54.189Z,31.21
2022-08-26T12:15:10.119Z,34.23
2022-08-26T12:17:39.712Z,33.47
2022-08-26T12:20:26.873Z,33.07
2022-08-26T12:22:54.340Z,33.14
2022-08-26T12:25:23.837Z,33.88
2022-08-26T12:27:54.060Z,32.33
2022-08-26T12:30:22.565Z,33.92
2022-08-26T12:32:58.795Z,32.54
2022-08-26T12:35:28.775Z,31.82
2022-08-26T12:37:57.603Z,29.11
2022-08-26T12:40:31.107Z,28.22
2022-08-26T12:43:00.398Z,28.47
2022-08-26T12:45:28.792Z,29.03
2022-08-26T12:47:57.301Z,28.56
2022-08-26T12:50:26.180Z,28.98
2022-08-26T12:52:57.266Z,29.31
2022-08-26T12:55:36.742Z,31.54
2022-08-26T12:58:11.928Z,29.96
2022-08-26T13:00:40.917Z,28.81
2022-08-26T13:03:29.606Z,31.01
2022-08-26T13:06:15.892Z,27.09
2022-08-26T13:08:44.546Z,29.51
2022-08-26T13:11:22.501Z,29.04
2022-08-26T13:13:53.523Z,25.57
2022-08-26T13:16:21.461Z,26.95
2022-08-26T13:18:49.746Z,30.30
2022-08-26T13:21:20.467Z,30.23
2022-08-26T13:23:48.125Z,31.21
2022-08-26T13:26:15.603Z,30.97
2022-08-26T13:28:43.287Z,31.96
2022-08-26T13:31:10.893Z,32.85
2022-08-26T13:33:38.173Z,31.25
2022-08-26T13:36:07.113Z,29.98
2022-08-26T13:38:34.294Z,30.32
2022-08-26T13:41:02.595Z,30.45
2022-08-26T13:43:30.455Z,30.01
2022-08-26T13:45:57.610Z,30.63
2022-08-26T13:48:25.586Z,32.24
2022-08-26T13:50:53.838Z,32.07
2022-08-26T13:53:21.157Z,34.34
2022-08-26T13:55:49.216Z,36.02
2022-08-26T13:58:19.157Z,38.38
2022-08-26T14:00:46.417Z,36.81
2022-08-26T14:03:14.497Z,38.20
2022-08-26T14:05:43.885Z,38.28
2022-08-26T14:08:11.699Z,37.00
2022-08-26T14:10:39.041Z,37.35
2022-08-26T14:13:07.607Z,37.08
2022-08-26T14:15:36.745Z,38.25
2022-08-26T14:18:04.458Z,40.75
2022-08-26T14:20:33.934Z,38.46
2022-08-26T14:23:13.649Z,40.54
2022-08-26T14:25:49.791Z,39.88
2022-08-26T14:28:17.336Z,41.03
2022-08-26T14:30:47.155Z,41.97
2022-08-26T14:33:17.952Z,40.30
2022-08-26T14:35:48.997Z,40.20
2022-08-26T14:38:17.286Z,38.77
2022-08-26T14:40:47.578Z,41.80
2022-08-26T14:43:17.380Z,40.26
2022-08-26T14:45:45.259Z,40.49
2022-08-26T14:48:12.384Z,41.00
2022-08-26T14:50:39.590Z,42.28
2022-08-26T14:56:16.527Z,43.34
2022-08-26T14:58:45.312Z,43.93
2022-08-26T15:01:13.059Z,43.46
2022-08-26T15:03:42.745Z,41.91
2022-08-26T15:06:11.436Z,41.81
2022-08-26T15:08:41.190Z,43.38
2022-08-26T15:11:09.009Z,43.60
2022-08-26T15:13:36.355Z,43.00
2022-08-26T15:16:06.223Z,43.08
2022-08-26T15:21:28.855Z,43.24
2022-08-26T15:24:00.027Z,42.31
2022-08-26T15:26:29.971Z,43.45
2022-08-26T15:29:04.868Z,43.69
2022-08-26T15:31:32.815Z,42.65
2022-08-26T15:34:02.669Z,43.21
2022-08-26T15:36:59.808Z,42.93
2022-08-26T15:39:27.285Z,45.39
2022-08-26T15:41:56.183Z,42.94
2022-08-26T15:44:25.262Z,43.23
2022-08-26T15:46:58.658Z,44.00
2022-08-26T15:49:26.518Z,43.06
2022-08-26T15:51:53.806Z,43.86
2022-08-26T16:51:21.008Z,46.90
2022-08-26T17:15:54.168Z,49.47
2022-08-26T17:18:24.945Z,48.31
2022-08-26T17:20:52.402Z,48.39
2022-08-26T17:23:19.817Z,47.86
2022-08-26T17:25:47.157Z,47.98
2022-08-26T17:28:14.694Z,47.37
2022-08-26T17:30:42.014Z,46.88
2022-08-26T17:33:18.685Z,46.94
2022-08-26T17:35:56.005Z,48.41
2022-08-26T17:38:23.503Z,48.94
2022-08-26T17:40:50.993Z,47.87
2022-08-26T17:47:34.711Z,49.77
2022-08-26T17:50:02.449Z,48.13
2022-08-26T18:02:00.840Z,50.44
2022-08-26T18:04:28.150Z,50.80
2022-08-26T18:06:56.566Z,49.30
2022-08-26T18:09:23.829Z,50.84
2022-08-26T18:11:51.092Z,51.11
2022-08-26T18:14:18.374Z,51.19
2022-08-26T18:16:45.743Z,51.65
2022-08-26T18:19:51.219Z,51.70
2022-08-26T18:22:18.552Z,52.14
2022-08-26T18:24:55.466Z,51.83
2022-08-26T18:27:26.525Z,51.02
2022-08-26T18:29:54.685Z,50.85
2022-08-26T18:32:22.033Z,51.68
2022-08-26T18:34:49.487Z,53.03
2022-08-26T18:37:16.781Z,53.05
2022-08-26T18:39:44.101Z,52.78
2022-08-26T18:42:14.536Z,52.80
2022-08-26T18:44:42.735Z,52.58
2022-08-26T18:47:10.028Z,52.69
2022-08-26T18:49:37.298Z,52.48
2022-08-26T18:52:04.569Z,51.40
2022-08-26T19:06:56.972Z,53.18
2022-08-26T19:09:27.341Z,52.88
2022-08-26T19:14:23.999Z,53.55
2022-08-26T19:16:52.623Z,53.61
2022-08-26T19:19:21.055Z,53.79
2022-08-26T19:21:48.493Z,53.50
2022-08-26T19:24:17.563Z,54.27
2022-08-26T19:26:47.421Z,55.21
2022-08-26T19:29:15.472Z,54.88
2022-08-26T19:31:44.349Z,55.17
2022-08-26T19:34:15.195Z,54.32
2022-08-26T19:36:46.740Z,53.71
2022-08-26T19:39:14.329Z,55.21
2022-08-26T19:41:41.804Z,55.69
2022-08-26T19:44:10.975Z,55.96
2022-08-26T19:46:43.617Z,55.42
2022-08-26T19:49:36.045Z,55.11
2022-08-26T19:52:08.163Z,55.16
2022-08-26T19:54:48.480Z,55.11
2022-08-26T19:57:15.987Z,55.53
2022-08-26T19:59:43.443Z,55.22
2022-08-26T20:02:11.451Z,54.82
2022-08-26T20:04:39.267Z,54.34
2022-08-26T20:07:08.734Z,55.04
2022-08-26T20:09:36.357Z,55.30
2022-08-26T20:12:06.223Z,54.89
2022-08-26T20:14:33.821Z,54.67
2022-08-26T20:17:04.055Z,54.83
2022-08-26T20:19:50.750Z,54.74
2022-08-26T20:22:20.174Z,55.21
2022-08-26T20:24:48.597Z,54.63
2022-08-26T20:27:18.197Z,55.16
2022-08-26T20:29:45.492Z,55.21
2022-08-26T20:32:40.001Z,54.82
2022-08-26T20:35:13.344Z,55.22
2022-08-26T20:37:41.441Z,54.72
2022-08-26T20:40:10.533Z,55.33
2022-08-26T20:42:39.659Z,55.60
2022-08-26T20:45:07.564Z,55.57
2022-08-26T20:50:26.227Z,55.38
2022-08-26T20:58:52.107Z,54.75
2022-08-26T21:01:25.372Z,55.81
2022-08-26T21:03:53.331Z,54.63
2022-08-26T21:06:20.858Z,55.94
2022-08-26T21:08:57.754Z,55.86
2022-08-26T21:11:29.156Z,55.71
2022-08-26T21:14:16.230Z,55.95
2022-08-26T21:16:48.470Z,55.93
2022-08-26T21:19:18.342Z,56.27
2022-08-26T21:22:21.610Z,56.22
2022-08-26T21:24:48.863Z,56.24
2022-08-26T21:27:19.561Z,56.71
2022-08-26T21:29:53.671Z,57.19
2022-08-26T21:32:20.905Z,57.29
2022-08-26T21:34:48.137Z,56.86
2022-08-26T21:37:16.766Z,56.94
2022-08-26T21:39:44.387Z,56.66
2022-08-26T21:42:11.658Z,57.11
2022-08-26T21:44:38.905Z,56.93
2022-08-26T21:47:07.084Z,56.92
2022-08-26T21:49:34.277Z,57.01
2022-08-26T21:52:02.802Z,55.96
2022-08-26T21:54:30.496Z,57.62
2022-08-26T21:56:57.818Z,56.86
2022-08-26T21:59:25.838Z,57.05
2022-08-26T22:01:54.441Z,55.65
2022-08-26T22:04:21.864Z,56.63
2022-08-26T22:06:50.133Z,57.52
2022-08-26T22:09:18.945Z,57.15
2022-08-26T22:11:47.403Z,56.65
2022-08-26T22:14:16.360Z,56.82
2022-08-26T22:16:48.978Z,56.75
2022-08-26T22:19:17.673Z,57.65
2022-08-26T22:21:45.291Z,57.34
2022-08-26T22:24:12.582Z,57.48
2022-08-26T22:26:39.933Z,57.79
2022-08-26T22:29:07.684Z,57.52
2022-08-26T22:31:37.206Z,57.15
2022-08-26T22:34:09.767Z,56.23
2022-08-26T22:36:42.963Z,57.04
2022-08-26T22:39:12.227Z,56.69
2022-08-26T22:41:40.120Z,56.74
2022-08-26T22:44:07.579Z,56.43
2022-08-26T22:46:36.717Z,56.68
2022-08-26T22:49:04.970Z,56.98
2022-08-26T22:51:32.235Z,56.93
2022-08-26T22:53:59.456Z,57.30
2022-08-26T22:56:26.672Z,58.00
2022-08-26T22:58:53.892Z,57.46
2022-08-26T23:01:21.202Z,56.48
2022-08-26T23:03:48.586Z,56.30
2022-08-26T23:06:15.873Z,59.06
2022-08-26T23:08:45.313Z,57.27
2022-08-26T23:11:13.134Z,57.17
2022-08-26T23:13:40.479Z,58.20
2022-08-26T23:16:09.229Z,57.39
2022-08-26T23:18:36.681Z,56.77
2022-08-26T23:21:04.070Z,57.22
2022-08-26T23:23:31.448Z,56.94
2022-08-26T23:25:58.727Z,56.44
2022-08-26T23:28:26.466Z,57.30
2022-08-26T23:30:53.936Z,56.72
2022-08-26T23:33:21.401Z,56.84
2022-08-26T23:35:48.621Z,56.78
2022-08-26T23:38:16.762Z,57.82
2022-08-26T23:40:44.177Z,57.87
2022-08-26T23:43:11.622Z,59.89
2022-08-26T23:45:38.968Z,59.87
2022-08-26T23:48:06.674Z,58.32
2022-08-26T23:50:53.006Z,58.98
2022-08-26T23:53:21.220Z,59.99
2022-08-26T23:55:49.547Z,58.89
2022-08-26T23:58:17.391Z,57.95
